Locust Hill, Kentucky
Current Conditions -  °F | °C
As of 5:13 PM on Thursday 27 Nov 2014 (Local Time) from KFTK Reporting Station
Overcast Overcast  
Wind Chill: 21°   Ceiling: 2300
Heat Index: 28°   Visibility: 10mi
Dew Point: 21°   Wind: 7mph
Humidity: 74%   Direction: NA
Pressure: 30.41"   Gusts: 18mph
Location:  37.7463°N, 86.3536°W
Report Text: KFTK 272313Z AUTO VRB06G16KT 10SM OVC023 M02/M06 A3041 RMK AO2
Loading
Personal Weather Stations






























Interactive Weather Map New forecast layout! Learn more

10-Day Weather Forecast

Advertisements
Track Severe Weather on mobile